Airfield :
LOGIN :

Register | Disclaimer

   EN    FR    IT 

 










Legend :    VFR   Marginal VFR   IFR   Intensive IFR   Very Intensive IFR
Visi :
Ceiling :
>= 8 km
>= 3000ft
5 to 8 km
1000 to 3000 ft
1500m to 5 km
500 to 1000 ft
800 to 1500m
200 to 500 ft
< 800m
< 200 ft
Symbols :   Thunderstorms  Fog  Heavy snow  Heavy precipitations  Wind > 20 kt
SIGMETs :     Misc.  Thunderstorms  Icing  Turbulence  Mountain Waves  Volcanic Ashes







- Airport Elevation : 44 ft
- IATA code : SOU
- Download approach charts


EGHI - Southampton

CURRENT METAR :
  • 161620Z 31004KT 250V350 9999 FEW021 SCT034 20/15 Q1021

EXPIRED METARs :
  • 161550Z VRB02KT 9999 BKN025 20/15 Q1021
  • 161520Z 28004KT 210V320 9999 BKN022 20/15 Q1022
  • 161450Z 30004KT 270V340 9999 BKN025 20/14 Q1022
  • 161420Z 29005KT 230V340 9999 FEW018 BKN025 20/14 Q1022
  • 161350Z 27007KT 240V320 9999 FEW018 SCT025 20/15 Q1022

TAF TAF EGHI
Valid from the 16 at 15:00 until the 16 at 22:00 UTC


161428Z 1615/1622 29005KT 9999 SCT018
TEMPO 1615/1622 8000 BKN012
PROB30
TEMPO 1618/1621 3000 BR -DZ BKN009
ATIS : +44 23 8062 7103
No reported NOTAMs for that airfield.



MET'MAP, your aeronautical weather chart ! - Copyright ORBIFLY December 2007 - Disclaimer

ORBIFLY MET'MAP TEAM :

Programming & Development : Alexandra Zaïnal
Concept & Development : Baudouin d'Aumeries
Co-Development & Prog : Marc-Olivier Méhu
Technical & hardware support : Manuel Goepfert

Contact : metmap@orbifly.com




SOURCES & CREDITS :

   NOAA